createdAt,value
2022-10-28T00:00:09.801Z,97976.81
2022-10-28T00:01:20.158Z,97973.94
2022-10-28T00:02:21.792Z,97980.78
2022-10-28T00:03:23.453Z,97983.28
2022-10-28T00:04:25.006Z,97986.63
2022-10-28T00:05:26.559Z,97978.19
2022-10-28T00:06:31.378Z,97986.13
2022-10-28T00:07:32.907Z,97982.78
2022-10-28T00:08:34.609Z,97991.78
2022-10-28T00:09:36.202Z,97989.56
2022-10-28T00:10:37.757Z,97986.53
2022-10-28T00:11:39.587Z,97982.78
2022-10-28T00:12:41.096Z,97986.56
2022-10-28T00:13:44.116Z,97983.25
2022-10-28T00:14:45.708Z,97985.13
2022-10-28T00:15:47.252Z,97983.53
2022-10-28T00:16:49.307Z,97986.72
2022-10-28T00:17:51.152Z,97987.63
2022-10-28T00:18:54.164Z,97981.44
2022-10-28T00:19:55.908Z,97974.66
2022-10-28T00:21:07.116Z,97970.00
2022-10-28T00:22:08.685Z,97971.78
2022-10-28T00:23:10.249Z,97977.59
2022-10-28T00:24:13.809Z,97971.91
2022-10-28T00:25:15.406Z,97974.72
2022-10-28T00:26:22.149Z,97979.81
2022-10-28T00:27:23.660Z,97975.22
2022-10-28T00:28:25.177Z,97978.34
2022-10-28T00:29:26.784Z,97972.97
2022-10-28T00:30:28.315Z,97975.84
2022-10-28T00:31:31.313Z,97978.88
2022-10-28T00:32:32.815Z,97972.69
2022-10-28T00:33:34.613Z,97974.28
2022-10-28T00:34:36.174Z,97973.50
2022-10-28T00:35:37.714Z,97972.69
2022-10-28T00:36:41.441Z,97975.84
2022-10-28T00:37:42.970Z,97985.50
2022-10-28T00:38:47.333Z,97975.22
2022-10-28T00:39:48.894Z,97972.97
2022-10-28T00:40:50.393Z,97973.75
2022-10-28T00:41:58.190Z,97971.44
2022-10-28T00:42:59.699Z,97977.00
2022-10-28T00:44:22.499Z,97977.97
2022-10-28T00:45:24.886Z,97980.03
2022-10-28T00:46:43.787Z,97979.56
2022-10-28T00:47:56.046Z,97986.72
2022-10-28T00:49:18.835Z,97979.72
2022-10-28T00:50:38.742Z,97982.44
2022-10-28T00:51:41.003Z,97979.59
2022-10-28T00:52:46.640Z,97974.38
2022-10-28T00:53:51.752Z,97979.19
2022-10-28T00:54:54.719Z,97982.03
2022-10-28T00:55:59.653Z,97982.03
2022-10-28T00:57:04.129Z,97989.03
2022-10-28T00:58:07.489Z,97983.63
2022-10-28T00:59:22.265Z,97987.91
2022-10-28T01:00:25.851Z,97985.69
2022-10-28T01:01:27.539Z,97982.38
2022-10-28T01:02:29.303Z,97980.81
2022-10-28T01:03:31.061Z,97979.22
2022-10-28T01:04:33.089Z,97981.13
2022-10-28T01:05:38.803Z,97980.97
2022-10-28T01:06:41.762Z,97983.94
2022-10-28T01:07:44.437Z,97977.94
2022-10-28T01:08:46.043Z,97984.28
2022-10-28T01:09:47.827Z,97976.03
2022-10-28T01:11:05.968Z,97983.16
2022-10-28T01:12:17.123Z,97978.69
2022-10-28T01:13:41.917Z,97984.22
2022-10-28T01:14:46.176Z,97985.22
2022-10-28T01:15:56.855Z,97985.38
2022-10-28T01:17:24.496Z,97986.63
2022-10-28T01:19:00.075Z,97982.81
2022-10-28T01:20:41.573Z,97983.00
2022-10-28T01:22:22.373Z,97982.03
2022-10-28T01:23:39.926Z,97984.41
2022-10-28T01:24:50.612Z,97987.25
2022-10-28T01:26:12.303Z,97985.03
2022-10-28T01:27:25.848Z,97983.47
2022-10-28T01:29:04.511Z,97984.56
2022-10-28T01:30:13.897Z,97980.94
2022-10-28T01:31:33.380Z,97975.88
2022-10-28T01:32:46.840Z,97976.03
2022-10-28T01:33:58.705Z,97982.53
2022-10-28T01:35:35.565Z,97980.31
2022-10-28T01:36:49.463Z,97984.44
2022-10-28T01:38:16.131Z,97979.84
2022-10-28T01:39:26.498Z,97981.44
2022-10-28T01:40:34.275Z,97978.88
2022-10-28T01:41:54.151Z,97982.06
2022-10-28T01:43:01.781Z,97977.47
2022-10-28T01:44:03.274Z,97979.84
2022-10-28T01:45:07.873Z,97986.47
2022-10-28T01:46:18.943Z,97976.19
2022-10-28T01:47:26.271Z,97989.00
2022-10-28T01:48:46.215Z,97989.31
2022-10-28T01:49:56.699Z,97987.09
2022-10-28T01:51:19.868Z,97992.47
2022-10-28T01:52:25.814Z,97985.69
2022-10-28T01:53:31.641Z,97984.88
2022-10-28T01:54:34.620Z,97990.28
2022-10-28T01:55:41.046Z,97983.28
2022-10-28T01:56:45.117Z,97986.31
2022-10-28T01:57:49.712Z,97986.16
2022-10-28T01:58:55.988Z,97979.19
2022-10-28T01:59:58.023Z,97986.94
2022-10-28T02:01:04.804Z,97986.16
2022-10-28T02:02:06.608Z,97987.75
2022-10-28T02:03:09.703Z,97992.34
2022-10-28T02:04:11.233Z,97983.81
2022-10-28T02:05:40.368Z,97982.66
2022-10-28T02:06:46.139Z,97993.91
2022-10-28T02:07:51.051Z,97986.31
2022-10-28T02:08:55.129Z,97986.94
2022-10-28T02:10:11.732Z,97989.94
2022-10-28T02:11:22.057Z,97984.56
2022-10-28T02:12:36.539Z,97983.16
2022-10-28T02:13:43.903Z,97980.16
2022-10-28T02:15:03.960Z,97986.47
2022-10-28T02:16:18.698Z,97982.66
2022-10-28T02:17:53.343Z,97991.72
2022-10-28T02:19:25.619Z,97990.44
2022-10-28T02:21:03.033Z,97983.81
2022-10-28T02:22:19.588Z,97986.31
2022-10-28T02:23:48.496Z,97988.88
2022-10-28T02:24:49.991Z,97985.69
2022-10-28T02:26:09.444Z,97988.38
2022-10-28T02:27:29.111Z,97986.47
2022-10-28T02:29:01.267Z,97995.66
2022-10-28T02:30:09.774Z,97994.88
2022-10-28T02:31:26.373Z,97998.22
2022-10-28T02:32:32.261Z,97988.22
2022-10-28T02:33:38.573Z,97996.31
2022-10-28T02:34:45.441Z,97990.63
2022-10-28T02:35:54.779Z,97983.34
2022-10-28T02:36:59.485Z,97984.44
2022-10-28T02:38:07.647Z,97988.72
2022-10-28T02:39:10.137Z,97986.47
2022-10-28T02:40:19.158Z,97991.88
2022-10-28T02:41:31.292Z,97989.19
2022-10-28T02:42:41.165Z,97989.47
2022-10-28T02:43:44.640Z,97996.31
2022-10-28T02:44:51.705Z,97995.38
2022-10-28T02:45:57.538Z,98002.50
2022-10-28T02:47:03.012Z,98000.28
2022-10-28T02:48:12.812Z,98004.06
2022-10-28T02:49:15.183Z,98012.94
2022-10-28T02:50:20.164Z,98006.78
2022-10-28T02:51:29.554Z,98006.47
2022-10-28T02:52:34.232Z,98007.25
2022-10-28T02:54:04.994Z,98011.03
2022-10-28T02:55:07.051Z,98010.25
2022-10-28T02:56:09.925Z,98004.38
2022-10-28T02:57:22.168Z,98006.13
2022-10-28T02:58:23.766Z,98006.78
2022-10-28T02:59:25.814Z,98004.25
2022-10-28T03:00:27.330Z,98012.63
2022-10-28T03:01:29.108Z,98011.97
2022-10-28T03:02:30.903Z,98010.25
2022-10-28T03:03:32.495Z,98017.19
2022-10-28T03:04:34.025Z,98015.44
2022-10-28T03:05:35.546Z,98009.91
2022-10-28T03:06:37.088Z,98013.22
2022-10-28T03:07:38.838Z,98015.59
2022-10-28T03:08:40.352Z,98015.28
2022-10-28T03:09:41.965Z,98017.47
2022-10-28T03:10:43.472Z,98019.72
2022-10-28T03:11:44.982Z,98012.75
2022-10-28T03:12:46.515Z,98023.50
2022-10-28T03:13:48.131Z,98020.50
2022-10-28T03:14:49.662Z,98014.47
2022-10-28T03:15:51.210Z,98014.78
2022-10-28T03:16:52.748Z,98021.44
2022-10-28T03:17:54.469Z,98023.66
2022-10-28T03:18:56.280Z,98018.56
2022-10-28T03:19:57.848Z,98020.00
2022-10-28T03:20:59.367Z,98026.63
2022-10-28T03:22:00.908Z,98022.69
2022-10-28T03:23:02.512Z,98022.84
2022-10-28T03:24:04.305Z,98023.84
2022-10-28T03:25:06.084Z,98025.41
2022-10-28T03:26:07.606Z,98015.78
2022-10-28T03:27:09.157Z,98018.13
2022-10-28T03:28:10.664Z,98021.59
2022-10-28T03:29:12.187Z,98018.63
2022-10-28T03:30:14.688Z,98021.00
2022-10-28T03:31:17.123Z,98025.41
2022-10-28T03:32:18.759Z,98022.25
2022-10-28T03:33:20.345Z,98021.16
2022-10-28T03:34:21.884Z,98020.00
2022-10-28T03:35:23.557Z,98021.16
2022-10-28T03:36:25.109Z,98028.09
2022-10-28T03:37:26.710Z,98025.72
2022-10-28T03:38:28.223Z,98028.09
2022-10-28T03:39:29.750Z,98024.94
2022-10-28T03:40:31.340Z,98021.59
2022-10-28T03:41:32.866Z,98022.72
2022-10-28T03:42:36.450Z,98024.28
2022-10-28T03:43:40.473Z,98028.56
2022-10-28T03:44:41.979Z,98022.72
2022-10-28T03:45:44.249Z,98020.81
2022-10-28T03:46:45.768Z,98034.75
2022-10-28T03:47:47.457Z,98029.69
2022-10-28T03:48:48.997Z,98028.56
2022-10-28T03:49:50.535Z,98030.00
2022-10-28T03:50:55.728Z,98025.41
2022-10-28T03:51:57.258Z,98025.41
2022-10-28T03:52:58.902Z,98026.19
2022-10-28T03:54:00.580Z,98027.13
2022-10-28T03:55:02.153Z,98018.91
2022-10-28T03:56:03.870Z,98023.00
2022-10-28T03:57:05.389Z,98029.97
2022-10-28T03:58:06.956Z,98025.38
2022-10-28T03:59:13.232Z,98022.34
2022-10-28T04:00:16.912Z,98021.09
2022-10-28T04:01:18.551Z,98021.09
2022-10-28T04:02:20.253Z,98014.94
2022-10-28T04:03:23.757Z,98019.22
2022-10-28T04:04:28.420Z,98015.72
2022-10-28T04:05:32.348Z,98020.00
2022-10-28T04:06:33.859Z,98021.59
2022-10-28T04:07:35.590Z,98013.03
2022-10-28T04:08:37.440Z,98020.97
2022-10-28T04:09:38.988Z,98017.16
2022-10-28T04:10:44.916Z,98018.25
2022-10-28T04:11:49.401Z,98017.78
2022-10-28T04:12:51.052Z,98014.63
2022-10-28T04:13:52.846Z,98020.59
2022-10-28T04:14:54.439Z,98013.69
2022-10-28T04:15:56.622Z,98015.22
2022-10-28T04:16:58.780Z,98022.84
2022-10-28T04:18:00.387Z,98021.88
2022-10-28T04:19:02.536Z,98023.44
2022-10-28T04:20:04.736Z,98028.38
2022-10-28T04:21:06.351Z,98025.19
2022-10-28T04:22:09.152Z,98020.28
2022-10-28T04:23:15.748Z,98025.03
2022-10-28T04:24:17.291Z,98026.63
2022-10-28T04:25:18.841Z,98028.22
2022-10-28T04:26:20.369Z,98020.16
2022-10-28T04:27:21.907Z,98026.63
2022-10-28T04:28:24.493Z,98021.25
2022-10-28T04:29:26.001Z,98024.44
2022-10-28T04:30:27.596Z,98021.25
2022-10-28T04:31:29.110Z,98032.00
2022-10-28T04:32:30.780Z,98032.00
2022-10-28T04:33:32.484Z,98034.19
2022-10-28T04:34:34.009Z,98028.66
2022-10-28T04:35:35.592Z,98023.59
2022-10-28T04:36:37.103Z,98032.28
2022-10-28T04:37:39.805Z,98027.53
2022-10-28T04:38:41.328Z,98030.25
2022-10-28T04:39:42.827Z,98028.66
2022-10-28T04:40:47.929Z,98024.84
2022-10-28T04:41:49.439Z,98028.00
2022-10-28T04:42:51.257Z,98023.13
2022-10-28T04:43:53.380Z,98031.66
2022-10-28T04:44:55.095Z,98024.38
2022-10-28T04:45:56.637Z,98037.81
2022-10-28T04:46:58.229Z,98034.03
2022-10-28T04:48:00.957Z,98028.50
2022-10-28T04:49:02.784Z,98028.31
2022-10-28T04:50:04.956Z,98030.38
2022-10-28T04:51:06.606Z,98025.25
2022-10-28T04:52:09.738Z,98027.31
2022-10-28T04:53:13.722Z,98027.09
2022-10-28T04:54:15.245Z,98034.69
2022-10-28T04:55:16.770Z,98027.56
2022-10-28T04:56:18.340Z,98021.38
2022-10-28T04:57:19.876Z,98018.22
2022-10-28T04:58:21.404Z,98026.75
2022-10-28T04:59:22.955Z,98020.88
2022-10-28T05:00:25.501Z,98031.34
2022-10-28T05:01:27.192Z,98027.56
2022-10-28T05:02:28.871Z,98027.38
2022-10-28T05:03:30.393Z,98032.13
2022-10-28T05:04:31.922Z,98027.72
2022-10-28T05:05:33.740Z,98030.31
2022-10-28T05:06:35.368Z,98024.94
2022-10-28T05:07:37.945Z,98025.38
2022-10-28T05:08:39.544Z,98028.41
2022-10-28T05:09:41.070Z,98030.31
2022-10-28T05:10:42.577Z,98035.16
2022-10-28T05:11:44.133Z,98031.66
2022-10-28T05:12:46.085Z,98029.31
2022-10-28T05:13:47.748Z,98032.69
2022-10-28T05:14:51.223Z,98032.84
2022-10-28T05:15:54.682Z,98033.44
2022-10-28T05:16:56.259Z,98036.22
2022-10-28T05:17:57.841Z,98044.19
2022-10-28T05:18:59.376Z,98037.03
2022-10-28T05:20:00.972Z,98034.84
2022-10-28T05:21:02.541Z,98045.44
2022-10-28T05:22:04.386Z,98038.09
2022-10-28T05:23:05.920Z,98045.69
2022-10-28T05:24:07.596Z,98047.81
2022-10-28T05:25:09.316Z,98045.13
2022-10-28T05:26:10.875Z,98050.84
2022-10-28T05:27:12.857Z,98053.06
2022-10-28T05:28:14.554Z,98054.16
2022-10-28T05:29:16.169Z,98053.06
2022-10-28T05:30:18.077Z,98053.88
2022-10-28T05:31:19.658Z,98061.59
2022-10-28T05:32:21.205Z,98065.88
2022-10-28T05:33:22.776Z,98059.84
2022-10-28T05:34:24.273Z,98058.06
2022-10-28T05:35:25.808Z,98056.72
2022-10-28T05:36:27.387Z,98061.41
2022-10-28T05:37:28.978Z,98066.47
2022-10-28T05:38:30.515Z,98065.38
2022-10-28T05:39:32.049Z,98071.47
2022-10-28T05:40:33.716Z,98071.28
2022-10-28T05:41:38.662Z,98061.72
2022-10-28T05:42:44.472Z,98065.50
2022-10-28T05:43:45.974Z,98056.72
2022-10-28T05:44:47.513Z,98066.88
2022-10-28T05:45:53.994Z,98069.44
2022-10-28T05:46:56.540Z,98075.16
2022-10-28T05:47:58.099Z,98069.34
2022-10-28T05:48:59.615Z,98067.50
2022-10-28T05:50:01.129Z,98067.72
2022-10-28T05:51:02.712Z,98067.09
2022-10-28T05:52:04.505Z,98069.00
2022-10-28T05:53:06.045Z,98065.59
2022-10-28T05:54:07.664Z,98070.03
2022-10-28T05:55:09.481Z,98070.72
2022-10-28T05:56:11.085Z,98072.47
2022-10-28T05:57:12.726Z,98070.47
2022-10-28T05:58:14.358Z,98070.16
2022-10-28T05:59:15.881Z,98073.28
2022-10-28T06:00:19.793Z,98071.50
2022-10-28T06:01:21.335Z,98070.72
2022-10-28T06:02:22.907Z,98078.28
2022-10-28T06:03:30.000Z,98078.66
2022-10-28T06:04:33.494Z,98077.19
2022-10-28T06:05:43.108Z,98080.13
2022-10-28T06:06:44.669Z,98087.69
2022-10-28T06:07:46.229Z,98074.16
2022-10-28T06:08:47.773Z,98080.03
2022-10-28T06:09:50.723Z,98077.06
2022-10-28T06:10:52.546Z,98073.56
2022-10-28T06:11:54.054Z,98079.59
2022-10-28T06:12:55.797Z,98083.09
2022-10-28T06:13:57.338Z,98080.41
2022-10-28T06:14:58.980Z,98082.66
2022-10-28T06:16:00.551Z,98084.91
2022-10-28T06:17:02.590Z,98088.09
2022-10-28T06:18:04.395Z,98082.72
2022-10-28T06:19:05.925Z,98093.63
2022-10-28T06:20:08.078Z,98093.78
2022-10-28T06:21:09.610Z,98087.66
2022-10-28T06:22:11.456Z,98088.47
2022-10-28T06:23:12.972Z,98095.44
2022-10-28T06:24:14.583Z,98089.56
2022-10-28T06:25:17.316Z,98088.13
2022-10-28T06:26:19.059Z,98087.34
2022-10-28T06:27:20.612Z,98097.66
2022-10-28T06:28:22.544Z,98092.75
2022-10-28T06:29:24.384Z,98099.41
2022-10-28T06:30:26.368Z,98095.78
2022-10-28T06:31:27.881Z,98100.38
2022-10-28T06:32:29.397Z,98096.28
2022-10-28T06:33:33.956Z,98102.75
2022-10-28T06:34:35.561Z,98097.19
2022-10-28T06:35:37.133Z,98106.56
2022-10-28T06:36:38.752Z,98106.09
2022-10-28T06:37:40.397Z,98102.56
2022-10-28T06:38:41.903Z,98101.31
2022-10-28T06:39:44.311Z,98103.69
2022-10-28T06:40:49.041Z,98103.84
2022-10-28T06:41:53.826Z,98100.81
2022-10-28T06:42:59.745Z,98101.47
2022-10-28T06:44:01.692Z,98098.94
2022-10-28T06:45:03.917Z,98100.69
2022-10-28T06:46:05.495Z,98098.78
2022-10-28T06:47:08.843Z,98101.50
2022-10-28T06:48:10.491Z,98097.81
2022-10-28T06:49:12.012Z,98092.44
2022-10-28T06:50:13.602Z,98095.44
2022-10-28T06:51:17.157Z,98097.16
2022-10-28T06:52:18.673Z,98097.41
2022-10-28T06:53:20.229Z,98095.16
2022-10-28T06:54:21.744Z,98093.41
2022-10-28T06:55:24.106Z,98094.97
2022-10-28T06:56:25.841Z,98092.41
2022-10-28T06:57:29.223Z,98087.56
2022-10-28T06:58:30.995Z,98093.56
2022-10-28T06:59:32.540Z,98091.66
2022-10-28T07:00:34.783Z,98093.16
2022-10-28T07:01:36.417Z,98095.63
2022-10-28T07:02:41.459Z,98099.09
2022-10-28T07:03:47.019Z,98094.31
2022-10-28T07:04:48.562Z,98092.25
2022-10-28T07:05:51.550Z,98090.03
2022-10-28T07:06:57.157Z,98088.00
2022-10-28T07:07:58.718Z,98085.44
2022-10-28T07:09:00.239Z,98094.28
2022-10-28T07:10:01.762Z,98087.72
2022-10-28T07:11:03.425Z,98092.59
2022-10-28T07:12:06.983Z,98076.22
2022-10-28T07:13:08.693Z,98087.69
2022-10-28T07:14:10.844Z,98083.22
2022-10-28T07:15:12.367Z,98077.91
2022-10-28T07:16:13.907Z,98077.03
2022-10-28T07:17:15.399Z,98078.22
2022-10-28T07:18:16.930Z,98071.78
2022-10-28T07:19:22.474Z,98077.94
2022-10-28T07:20:27.866Z,98075.31
2022-10-28T07:21:29.863Z,98077.44
2022-10-28T07:22:31.425Z,98078.22
2022-10-28T07:23:34.223Z,98080.94
2022-10-28T07:24:35.747Z,98081.41
2022-10-28T07:25:37.435Z,98081.44
2022-10-28T07:26:38.982Z,98077.16
2022-10-28T07:27:40.499Z,98076.34
2022-10-28T07:28:42.932Z,98072.38
2022-10-28T07:29:44.513Z,98074.66
2022-10-28T07:30:46.063Z,98077.25
2022-10-28T07:31:47.619Z,98069.94
2022-10-28T07:32:49.245Z,98069.72
2022-10-28T07:33:54.840Z,98073.22
2022-10-28T07:34:56.339Z,98070.88
2022-10-28T07:35:57.885Z,98072.22
2022-10-28T07:36:59.515Z,98071.31
2022-10-28T07:38:01.018Z,98075.50
2022-10-28T07:39:02.605Z,98071.31
2022-10-28T07:40:04.555Z,98069.47
2022-10-28T07:41:08.874Z,98071.19
2022-10-28T07:42:10.459Z,98072.38
2022-10-28T07:43:12.055Z,98076.47
2022-10-28T07:44:14.673Z,98073.88
2022-10-28T07:45:17.629Z,98077.38
2022-10-28T07:46:19.928Z,98076.63
2022-10-28T07:47:22.174Z,98080.59
2022-10-28T07:48:24.463Z,98076.13
2022-10-28T07:49:26.055Z,98074.28
2022-10-28T07:50:27.654Z,98076.97
2022-10-28T07:51:29.182Z,98072.00
2022-10-28T07:52:30.773Z,98079.09
2022-10-28T07:53:32.527Z,98073.31
2022-10-28T07:54:34.033Z,98068.38
2022-10-28T07:55:35.548Z,98066.00
2022-10-28T07:56:37.103Z,98072.22
2022-10-28T07:57:38.660Z,98071.81
2022-10-28T07:58:41.411Z,98062.09
2022-10-28T07:59:42.907Z,98062.34
2022-10-28T08:00:44.433Z,98059.28
2022-10-28T08:01:46.225Z,98060.63
2022-10-28T08:02:47.889Z,98063.81
2022-10-28T08:03:49.451Z,98059.09
2022-10-28T08:04:51.870Z,98052.59
2022-10-28T08:06:03.706Z,98060.53
2022-10-28T08:07:05.258Z,98050.13
2022-10-28T08:08:06.818Z,98050.56
2022-10-28T08:09:08.447Z,98050.38
2022-10-28T08:10:10.224Z,98056.25
2022-10-28T08:11:18.876Z,98052.97
2022-10-28T08:12:20.379Z,98051.03
2022-10-28T08:13:22.074Z,98052.63
2022-10-28T08:14:23.679Z,98051.00
2022-10-28T08:15:25.817Z,98052.59
2022-10-28T08:16:29.079Z,98055.09
2022-10-28T08:17:30.771Z,98050.63
2022-10-28T08:18:32.440Z,98052.41
2022-10-28T08:19:34.300Z,98051.72
2022-10-28T08:20:35.826Z,98047.88
2022-10-28T08:21:37.340Z,98051.84
2022-10-28T08:22:38.850Z,98045.59
2022-10-28T08:23:41.556Z,98049.84
2022-10-28T08:24:43.082Z,98051.44
2022-10-28T08:25:52.307Z,98045.69
2022-10-28T08:26:53.837Z,98039.94
2022-10-28T08:27:57.371Z,98036.22
2022-10-28T08:29:01.464Z,98049.03
2022-10-28T08:30:03.344Z,98038.78
2022-10-28T08:31:09.391Z,98044.50
2022-10-28T08:32:11.577Z,98040.19
2022-10-28T08:33:14.376Z,98041.31
2022-10-28T08:34:16.085Z,98043.25
2022-10-28T08:35:17.670Z,98035.97
2022-10-28T08:36:19.255Z,98037.28
2022-10-28T08:37:20.895Z,98038.75
2022-10-28T08:38:22.455Z,98034.38
2022-10-28T08:39:24.087Z,98033.47
2022-10-28T08:40:45.404Z,98026.69
2022-10-28T08:41:58.455Z,98032.13
2022-10-28T08:43:14.676Z,98029.94
2022-10-28T08:44:38.369Z,98032.56
2022-10-28T08:46:04.411Z,98031.34
2022-10-28T08:47:27.308Z,98030.47
2022-10-28T08:48:33.696Z,98031.06
2022-10-28T08:49:39.344Z,98030.81
2022-10-28T08:50:51.674Z,98025.28
2022-10-28T08:52:21.945Z,98025.13
2022-10-28T08:53:34.507Z,98024.84
2022-10-28T08:54:43.127Z,98021.63
2022-10-28T08:55:48.568Z,98018.03
2022-10-28T08:56:52.048Z,98021.88
2022-10-28T08:58:03.415Z,98021.72
2022-10-28T08:59:07.528Z,98021.53
2022-10-28T09:00:22.017Z,98015.56
2022-10-28T09:01:51.431Z,98016.88
2022-10-28T09:03:13.170Z,98014.19
2022-10-28T09:04:34.929Z,98014.47
2022-10-28T09:05:37.902Z,98010.09
2022-10-28T09:06:39.428Z,98006.25
2022-10-28T09:07:41.091Z,98010.94
2022-10-28T09:08:45.500Z,98013.31
2022-10-28T09:09:49.298Z,98008.19
2022-10-28T09:11:11.042Z,98005.91
2022-10-28T09:12:33.058Z,98007.91
2022-10-28T09:13:54.444Z,98000.75
2022-10-28T09:15:23.448Z,97996.31
2022-10-28T09:16:47.636Z,98002.03
2022-10-28T09:17:59.807Z,97995.38
2022-10-28T09:19:14.780Z,97989.69
2022-10-28T09:20:36.736Z,97990.94
2022-10-28T09:21:48.640Z,97991.72
2022-10-28T09:22:55.588Z,97990.75
2022-10-28T09:24:00.899Z,97996.34
2022-10-28T09:25:05.232Z,97994.03
2022-10-28T09:26:09.784Z,97988.22
2022-10-28T09:27:22.975Z,97992.31
2022-10-28T09:28:36.543Z,97991.16
2022-10-28T09:29:57.355Z,97987.50
2022-10-28T09:31:30.987Z,97988.19
2022-10-28T09:32:39.824Z,97984.66
2022-10-28T09:34:09.992Z,97982.44
2022-10-28T09:35:19.362Z,97977.81
2022-10-28T09:36:32.126Z,97973.66
2022-10-28T09:37:45.713Z,97970.13
2022-10-28T09:38:47.832Z,97968.59
2022-10-28T09:40:23.449Z,97973.00
2022-10-28T09:41:31.203Z,97969.09
2022-10-28T09:42:41.777Z,97959.94
2022-10-28T09:44:00.070Z,97962.97
2022-10-28T09:45:06.395Z,97963.97
2022-10-28T09:46:33.338Z,97966.84
2022-10-28T09:47:42.120Z,97956.38
2022-10-28T09:48:47.997Z,97955.81
2022-10-28T09:49:54.374Z,97957.59
2022-10-28T09:50:57.564Z,97945.31
2022-10-28T09:52:07.612Z,97950.81
2022-10-28T09:53:46.169Z,97943.78
2022-10-28T09:54:53.318Z,97938.69
2022-10-28T09:55:56.931Z,97945.09
2022-10-28T09:56:59.158Z,97938.31
2022-10-28T09:58:03.507Z,97938.19
2022-10-28T09:59:05.562Z,97941.81
2022-10-28T10:00:07.831Z,97936.84
2022-10-28T10:01:09.496Z,97928.84
2022-10-28T10:02:27.942Z,97925.66
2022-10-28T10:03:29.638Z,97928.25
2022-10-28T10:04:31.424Z,97927.84
2022-10-28T10:05:38.313Z,97927.69
2022-10-28T10:06:42.834Z,97922.38
2022-10-28T10:07:44.279Z,97920.91
2022-10-28T10:08:46.930Z,97918.91
2022-10-28T10:09:48.759Z,97924.78
2022-10-28T10:10:56.028Z,97921.97
2022-10-28T10:12:05.666Z,97919.75
2022-10-28T10:13:09.240Z,97912.28
2022-10-28T10:14:36.902Z,97915.56
2022-10-28T10:15:44.749Z,97919.00
2022-10-28T10:16:52.682Z,97906.56
2022-10-28T10:17:59.115Z,97907.25
2022-10-28T10:19:03.229Z,97904.63
2022-10-28T10:20:19.523Z,97906.84
2022-10-28T10:21:43.173Z,97911.78
2022-10-28T10:22:46.879Z,97913.94
2022-10-28T10:23:48.413Z,97909.34
2022-10-28T10:24:50.949Z,97910.25
2022-10-28T10:25:58.622Z,97899.44
2022-10-28T10:27:03.988Z,97899.44
2022-10-28T10:28:15.755Z,97899.44
2022-10-28T10:29:17.479Z,97897.00
2022-10-28T10:30:23.272Z,97901.72
2022-10-28T10:31:27.305Z,97904.19
2022-10-28T10:32:32.361Z,97895.75
2022-10-28T10:33:38.081Z,97890.91
2022-10-28T10:34:44.820Z,97895.09
2022-10-28T10:35:57.845Z,97888.47
2022-10-28T10:38:15.724Z,97887.53
2022-10-28T10:39:23.331Z,97884.50
2022-10-28T10:40:38.523Z,97885.13
2022-10-28T10:41:41.172Z,97881.34
2022-10-28T10:42:51.847Z,97884.53
2022-10-28T10:44:22.815Z,97880.97
2022-10-28T10:45:27.124Z,97877.88
2022-10-28T10:46:28.798Z,97875.97
2022-10-28T10:47:30.419Z,97880.25
2022-10-28T10:48:36.086Z,97879.81
2022-10-28T10:49:37.608Z,97874.72
2022-10-28T10:50:39.836Z,97876.22
2022-10-28T10:51:52.398Z,97870.50
2022-10-28T10:52:59.541Z,97868.94
2022-10-28T10:54:01.259Z,97871.88
2022-10-28T10:55:07.974Z,97864.88
2022-10-28T10:56:11.516Z,97863.69
2022-10-28T10:57:22.185Z,97866.75
2022-10-28T10:58:26.789Z,97858.66
2022-10-28T10:59:31.156Z,97861.84
2022-10-28T11:00:37.527Z,97859.53
2022-10-28T11:01:40.142Z,97856.91
2022-10-28T11:02:49.003Z,97857.28
2022-10-28T11:04:04.880Z,97857.63
2022-10-28T11:05:10.542Z,97854.22
2022-10-28T11:06:24.406Z,97851.53
2022-10-28T11:07:28.347Z,97849.59
2022-10-28T11:08:39.355Z,97852.72
2022-10-28T11:09:42.434Z,97853.34
2022-10-28T11:10:44.087Z,97850.88
2022-10-28T11:11:45.906Z,97848.88
2022-10-28T11:13:03.692Z,97848.56
2022-10-28T11:14:13.858Z,97844.47
2022-10-28T11:15:33.492Z,97842.06
2022-10-28T11:17:00.195Z,97849.09
2022-10-28T11:18:20.719Z,97841.31
2022-10-28T11:19:32.434Z,97839.38
2022-10-28T11:20:59.125Z,97840.28
2022-10-28T11:22:22.503Z,97838.50
2022-10-28T11:23:45.473Z,97838.56
2022-10-28T11:25:05.355Z,97837.06
2022-10-28T11:26:11.998Z,97836.25
2022-10-28T11:27:36.689Z,97832.22
2022-10-28T11:28:57.680Z,97826.00
2022-10-28T11:30:00.756Z,97822.94
2022-10-28T11:31:27.255Z,97824.53
2022-10-28T11:33:28.772Z,97818.34
2022-10-28T11:35:08.475Z,97812.97
2022-10-28T11:36:29.035Z,97813.06
2022-10-28T11:38:02.954Z,97813.50
2022-10-28T11:39:40.024Z,97811.25
2022-10-28T11:40:59.747Z,97803.06
2022-10-28T11:42:31.692Z,97800.06
2022-10-28T11:43:50.911Z,97800.09
2022-10-28T11:45:10.354Z,97801.59
2022-10-28T11:47:00.868Z,97793.84
2022-10-28T11:48:38.314Z,97795.78
2022-10-28T11:49:39.894Z,97794.22
2022-10-28T11:50:58.876Z,97789.56
2022-10-28T11:52:06.779Z,97782.25
2022-10-28T11:53:43.715Z,97785.44
2022-10-28T11:55:01.648Z,97785.47
2022-10-28T11:56:10.062Z,97783.94
2022-10-28T11:57:17.249Z,97777.28
2022-10-28T11:58:41.954Z,97776.03
2022-10-28T12:00:02.071Z,97783.06
2022-10-28T12:01:20.885Z,97774.47
2022-10-28T12:02:31.699Z,97778.09
2022-10-28T12:03:39.078Z,97772.25
2022-10-28T12:05:01.728Z,97773.44
2022-10-28T12:06:42.571Z,97764.47
2022-10-28T12:08:04.945Z,97761.75
2022-10-28T12:09:22.900Z,97764.44
2022-10-28T12:10:39.432Z,97748.09
2022-10-28T12:11:58.232Z,97755.19
2022-10-28T12:12:59.827Z,97756.00
2022-10-28T12:14:13.467Z,97753.63
2022-10-28T12:15:28.819Z,97759.09
2022-10-28T12:16:40.429Z,97748.16
2022-10-28T12:18:06.605Z,97749.31
2022-10-28T12:19:14.765Z,97744.66
2022-10-28T12:20:25.833Z,97736.50
2022-10-28T12:21:36.590Z,97742.00
2022-10-28T12:22:57.219Z,97746.81
2022-10-28T12:23:59.963Z,97737.56
2022-10-28T12:25:08.195Z,97744.59
2022-10-28T12:26:13.940Z,97737.63
2022-10-28T12:27:30.778Z,97736.47
2022-10-28T12:28:43.825Z,97732.22
2022-10-28T12:29:51.317Z,97736.91
2022-10-28T12:30:54.723Z,97728.31
2022-10-28T12:32:02.980Z,97733.03
2022-10-28T12:33:12.060Z,97729.94
2022-10-28T12:34:20.181Z,97734.59
2022-10-28T12:35:26.167Z,97736.19
2022-10-28T12:36:43.464Z,97733.81
2022-10-28T12:37:56.474Z,97732.25
2022-10-28T12:39:30.691Z,97726.06
2022-10-28T12:40:40.568Z,97729.22
2022-10-28T12:42:04.784Z,97719.06
2022-10-28T12:43:15.499Z,97720.59
2022-10-28T12:44:21.143Z,97721.31
2022-10-28T12:45:23.726Z,97719.72
2022-10-28T12:46:44.749Z,97723.63
2022-10-28T12:47:49.231Z,97714.66
2022-10-28T12:49:06.284Z,97710.34
2022-10-28T12:50:20.164Z,97712.72
2022-10-28T12:51:30.587Z,97716.59
2022-10-28T12:52:32.058Z,97710.47
2022-10-28T12:54:18.640Z,97712.81
2022-10-28T12:55:37.552Z,97711.25
2022-10-28T12:56:44.692Z,97703.41
2022-10-28T12:57:53.965Z,97704.94
2022-10-28T12:59:07.057Z,97712.75
2022-10-28T13:00:29.368Z,97708.78
2022-10-28T13:01:33.341Z,97708.78
2022-10-28T13:02:43.554Z,97708.03
2022-10-28T13:03:45.109Z,97704.09
2022-10-28T13:04:46.873Z,97707.25
2022-10-28T13:05:59.040Z,97705.69
2022-10-28T13:07:19.807Z,97704.94
2022-10-28T13:08:46.673Z,97709.25
2022-10-28T13:09:54.223Z,97699.50